sensor_id;sensor_type;location;lat;lon;timestamp;pressure;altitude;pressure_sealevel;temperature;humidity
10261;BME280;5175;42.606;23.388;2023-04-03T00:01:21;93135.88;;;6.15;100.00
10261;BME280;5175;42.606;23.388;2023-04-03T00:03:48;93146.19;;;6.21;100.00
10261;BME280;5175;42.606;23.388;2023-04-03T00:06:16;93145.91;;;6.33;100.00
10261;BME280;5175;42.606;23.388;2023-04-03T00:08:43;93146.19;;;6.37;100.00
10261;BME280;5175;42.606;23.388;2023-04-03T00:11:10;93136.38;;;6.22;100.00
10261;BME280;5175;42.606;23.388;2023-04-03T00:13:37;93137.47;;;6.16;100.00
10261;BME280;5175;42.606;23.388;2023-04-03T00:16:05;93130.31;;;5.96;100.00
10261;BME280;5175;42.606;23.388;2023-04-03T00:18:32;93121.59;;;6.01;100.00
10261;BME280;5175;42.606;23.388;2023-04-03T00:20:59;93132.44;;;6.04;100.00
10261;BME280;5175;42.606;23.388;2023-04-03T00:23:27;93128.16;;;5.73;100.00
10261;BME280;5175;42.606;23.388;2023-04-03T00:25:54;93117.84;;;5.66;100.00
10261;BME280;5175;42.606;23.388;2023-04-03T00:28:21;93127.91;;;5.64;100.00
10261;BME280;5175;42.606;23.388;2023-04-03T00:30:48;93109.91;;;5.61;100.00
10261;BME280;5175;42.606;23.388;2023-04-03T00:33:16;93140.66;;;5.93;100.00
10261;BME280;5175;42.606;23.388;2023-04-03T00:35:42;93134.78;;;5.76;100.00
10261;BME280;5175;42.606;23.388;2023-04-03T00:38:09;93116.78;;;5.42;100.00
10261;BME280;5175;42.606;23.388;2023-04-03T00:40:41;93115.41;;;5.20;100.00
10261;BME280;5175;42.606;23.388;2023-04-03T00:43:12;93131.31;;;5.35;100.00
10261;BME280;5175;42.606;23.388;2023-04-03T00:45:41;93133.72;;;5.41;100.00
10261;BME280;5175;42.606;23.388;2023-04-03T00:48:11;93124.66;;;5.17;100.00
10261;BME280;5175;42.606;23.388;2023-04-03T00:50:41;93129.94;;;5.17;100.00
10261;BME280;5175;42.606;23.388;2023-04-03T00:53:14;93122.81;;;5.18;100.00
10261;BME280;5175;42.606;23.388;2023-04-03T00:55:45;93126.81;;;5.25;100.00
10261;BME280;5175;42.606;23.388;2023-04-03T00:58:15;93121.53;;;5.40;100.00
10261;BME280;5175;42.606;23.388;2023-04-03T01:00:48;93125.50;;;5.43;100.00
10261;BME280;5175;42.606;23.388;2023-04-03T01:03:15;93091.91;;;5.38;100.00
10261;BME280;5175;42.606;23.388;2023-04-03T01:05:42;93126.31;;;5.43;100.00
10261;BME280;5175;42.606;23.388;2023-04-03T01:08:09;93129.25;;;5.62;100.00
10261;BME280;5175;42.606;23.388;2023-04-03T01:10:36;93109.66;;;5.58;100.00
10261;BME280;5175;42.606;23.388;2023-04-03T01:13:17;93118.09;;;5.65;100.00
10261;BME280;5175;42.606;23.388;2023-04-03T01:15:44;93128.44;;;5.77;100.00
10261;BME280;5175;42.606;23.388;2023-04-03T01:18:11;93133.75;;;5.82;100.00
10261;BME280;5175;42.606;23.388;2023-04-03T01:21:11;93135.03;;;5.49;100.00
10261;BME280;5175;42.606;23.388;2023-04-03T01:23:53;93130.25;;;5.21;100.00
10261;BME280;5175;42.606;23.388;2023-04-03T01:26:22;93123.59;;;5.13;100.00
10261;BME280;5175;42.606;23.388;2023-04-03T01:28:50;93130.75;;;5.13;100.00
10261;BME280;5175;42.606;23.388;2023-04-03T01:31:23;93128.28;;;4.91;100.00
10261;BME280;5175;42.606;23.388;2023-04-03T01:33:53;93115.84;;;4.86;100.00
10261;BME280;5175;42.606;23.388;2023-04-03T01:36:21;93125.88;;;4.74;100.00
10261;BME280;5175;42.606;23.388;2023-04-03T01:38:49;93126.91;;;4.78;100.00
10261;BME280;5175;42.606;23.388;2023-04-03T01:41:16;93138.00;;;4.75;100.00
10261;BME280;5175;42.606;23.388;2023-04-03T01:43:43;93141.94;;;4.68;100.00
10261;BME280;5175;42.606;23.388;2023-04-03T01:46:10;93134.81;;;4.73;100.00
10261;BME280;5175;42.606;23.388;2023-04-03T01:48:37;93131.72;;;4.86;100.00
10261;BME280;5175;42.606;23.388;2023-04-03T01:51:05;93133.25;;;4.67;100.00
10261;BME280;5175;42.606;23.388;2023-04-03T01:53:32;93132.47;;;4.72;100.00
10261;BME280;5175;42.606;23.388;2023-04-03T01:55:59;93122.59;;;4.57;100.00
10261;BME280;5175;42.606;23.388;2023-04-03T01:58:26;93133.06;;;4.99;100.00
10261;BME280;5175;42.606;23.388;2023-04-03T02:00:52;93138.91;;;5.11;100.00
10261;BME280;5175;42.606;23.388;2023-04-03T02:03:20;93141.25;;;4.87;100.00
10261;BME280;5175;42.606;23.388;2023-04-03T02:05:46;93132.00;;;4.90;100.00
10261;BME280;5175;42.606;23.388;2023-04-03T02:08:15;93123.81;;;4.91;100.00
10261;BME280;5175;42.606;23.388;2023-04-03T02:10:43;93128.06;;;5.02;100.00
10261;BME280;5175;42.606;23.388;2023-04-03T02:13:10;93117.22;;;4.99;100.00
10261;BME280;5175;42.606;23.388;2023-04-03T02:15:38;93128.63;;;5.10;100.00
10261;BME280;5175;42.606;23.388;2023-04-03T02:18:05;93132.88;;;5.16;100.00
10261;BME280;5175;42.606;23.388;2023-04-03T02:20:32;93122.19;;;4.85;100.00
10261;BME280;5175;42.606;23.388;2023-04-03T02:22:59;93135.53;;;4.54;100.00
10261;BME280;5175;42.606;23.388;2023-04-03T02:25:28;93132.91;;;4.54;100.00
10261;BME280;5175;42.606;23.388;2023-04-03T02:27:54;93125.22;;;4.00;100.00
10261;BME280;5175;42.606;23.388;2023-04-03T02:30:21;93124.22;;;4.11;100.00
10261;BME280;5175;42.606;23.388;2023-04-03T02:32:48;93126.69;;;3.86;100.00
10261;BME280;5175;42.606;23.388;2023-04-03T02:35:15;93120.72;;;3.64;100.00
10261;BME280;5175;42.606;23.388;2023-04-03T02:37:42;93098.72;;;3.85;100.00
10261;BME280;5175;42.606;23.388;2023-04-03T02:40:09;93102.81;;;4.08;100.00
10261;BME280;5175;42.606;23.388;2023-04-03T02:42:38;93115.53;;;4.11;100.00
10261;BME280;5175;42.606;23.388;2023-04-03T02:45:06;93119.72;;;4.12;100.00
10261;BME280;5175;42.606;23.388;2023-04-03T02:47:32;93123.56;;;3.94;100.00
10261;BME280;5175;42.606;23.388;2023-04-03T02:49:59;93121.75;;;3.95;100.00
10261;BME280;5175;42.606;23.388;2023-04-03T02:52:26;93115.28;;;3.80;100.00
10261;BME280;5175;42.606;23.388;2023-04-03T02:54:53;93100.06;;;3.88;100.00
10261;BME280;5175;42.606;23.388;2023-04-03T02:57:20;93109.41;;;4.05;100.00
10261;BME280;5175;42.606;23.388;2023-04-03T02:59:48;93113.72;;;3.79;100.00
10261;BME280;5175;42.606;23.388;2023-04-03T03:02:15;93080.69;;;3.72;100.00
10261;BME280;5175;42.606;23.388;2023-04-03T03:04:41;93113.97;;;3.78;100.00
10261;BME280;5175;42.606;23.388;2023-04-03T03:07:09;93039.41;;;3.19;100.00
10261;BME280;5175;42.606;23.388;2023-04-03T03:09:36;93088.34;;;3.73;100.00
10261;BME280;5175;42.606;23.388;2023-04-03T03:12:03;93091.56;;;3.80;100.00
10261;BME280;5175;42.606;23.388;2023-04-03T03:14:29;93082.66;;;3.92;100.00
10261;BME280;5175;42.606;23.388;2023-04-03T03:16:58;93087.72;;;4.03;100.00
10261;BME280;5175;42.606;23.388;2023-04-03T03:19:24;93018.13;;;3.67;100.00
10261;BME280;5175;42.606;23.388;2023-04-03T03:21:51;93080.56;;;3.94;100.00
10261;BME280;5175;42.606;23.388;2023-04-03T03:24:18;93081.13;;;4.01;100.00
10261;BME280;5175;42.606;23.388;2023-04-03T03:26:45;93094.94;;;4.13;100.00
10261;BME280;5175;42.606;23.388;2023-04-03T03:29:11;93084.06;;;4.04;100.00
10261;BME280;5175;42.606;23.388;2023-04-03T03:31:38;93083.56;;;4.07;100.00
10261;BME280;5175;42.606;23.388;2023-04-03T03:34:06;93079.81;;;4.03;100.00
10261;BME280;5175;42.606;23.388;2023-04-03T03:36:33;93088.78;;;3.97;100.00
10261;BME280;5175;42.606;23.388;2023-04-03T03:39:00;93085.13;;;3.66;100.00
10261;BME280;5175;42.606;23.388;2023-04-03T03:41:27;93081.56;;;3.46;100.00
10261;BME280;5175;42.606;23.388;2023-04-03T03:43:54;93085.03;;;3.51;100.00
10261;BME280;5175;42.606;23.388;2023-04-03T03:46:20;93078.97;;;3.24;100.00
10261;BME280;5175;42.606;23.388;2023-04-03T03:48:47;93086.09;;;3.24;100.00
10261;BME280;5175;42.606;23.388;2023-04-03T03:51:16;93073.94;;;3.17;100.00
10261;BME280;5175;42.606;23.388;2023-04-03T03:53:42;93087.88;;;3.13;100.00
10261;BME280;5175;42.606;23.388;2023-04-03T03:56:10;93086.72;;;3.04;100.00
10261;BME280;5175;42.606;23.388;2023-04-03T03:58:37;93100.50;;;3.16;100.00
10261;BME280;5175;42.606;23.388;2023-04-03T04:01:04;93085.13;;;3.35;100.00
10261;BME280;5175;42.606;23.388;2023-04-03T04:03:32;93079.59;;;3.31;100.00
10261;BME280;5175;42.606;23.388;2023-04-03T04:05:59;93087.41;;;3.53;100.00
10261;BME280;5175;42.606;23.388;2023-04-03T04:08:27;93083.16;;;3.52;100.00
10261;BME280;5175;42.606;23.388;2023-04-03T04:10:54;93091.78;;;3.42;100.00
10261;BME280;5175;42.606;23.388;2023-04-03T04:13:21;93092.22;;;3.29;100.00
10261;BME280;5175;42.606;23.388;2023-04-03T04:15:47;93037.59;;;2.93;100.00
10261;BME280;5175;42.606;23.388;2023-04-03T04:18:14;93100.97;;;3.35;100.00
10261;BME280;5175;42.606;23.388;2023-04-03T04:20:41;93102.91;;;3.49;100.00
10261;BME280;5175;42.606;23.388;2023-04-03T04:23:08;93094.81;;;3.56;100.00
10261;BME280;5175;42.606;23.388;2023-04-03T04:25:36;93100.97;;;3.35;100.00
10261;BME280;5175;42.606;23.388;2023-04-03T04:28:03;93098.97;;;3.52;100.00
10261;BME280;5175;42.606;23.388;2023-04-03T04:30:30;93087.69;;;3.56;100.00
10261;BME280;5175;42.606;23.388;2023-04-03T04:32:57;93098.97;;;3.84;100.00
10261;BME280;5175;42.606;23.388;2023-04-03T04:35:24;93102.91;;;3.81;100.00
10261;BME280;5175;42.606;23.388;2023-04-03T04:37:50;93091.69;;;4.01;100.00
10261;BME280;5175;42.606;23.388;2023-04-03T04:40:17;93091.13;;;3.99;100.00
10261;BME280;5175;42.606;23.388;2023-04-03T04:42:46;93104.06;;;3.95;100.00
10261;BME280;5175;42.606;23.388;2023-04-03T04:45:13;93033.88;;;3.57;100.00
10261;BME280;5175;42.606;23.388;2023-04-03T04:47:40;93107.47;;;3.96;100.00
10261;BME280;5175;42.606;23.388;2023-04-03T04:50:07;93068.53;;;3.71;100.00
10261;BME280;5175;42.606;23.388;2023-04-03T04:52:35;93122.44;;;4.22;100.00
10261;BME280;5175;42.606;23.388;2023-04-03T04:55:01;93121.28;;;4.03;100.00
10261;BME280;5175;42.606;23.388;2023-04-03T04:57:28;93127.66;;;4.12;100.00
10261;BME280;5175;42.606;23.388;2023-04-03T04:59:56;93133.13;;;4.00;100.00
10261;BME280;5175;42.606;23.388;2023-04-03T05:02:23;93132.91;;;4.07;100.00
10261;BME280;5175;42.606;23.388;2023-04-03T05:04:50;93132.78;;;3.92;100.00
10261;BME280;5175;42.606;23.388;2023-04-03T05:07:17;93148.28;;;4.20;100.00
10261;BME280;5175;42.606;23.388;2023-04-03T05:09:44;93148.78;;;4.17;100.00
10261;BME280;5175;42.606;23.388;2023-04-03T05:12:11;93154.50;;;4.46;100.00
10261;BME280;5175;42.606;23.388;2023-04-03T05:14:38;93141.63;;;4.54;100.00
10261;BME280;5175;42.606;23.388;2023-04-03T05:17:06;93142.97;;;4.57;100.00
10261;BME280;5175;42.606;23.388;2023-04-03T05:19:33;93142.50;;;4.70;100.00
10261;BME280;5175;42.606;23.388;2023-04-03T05:22:00;93143.38;;;4.90;100.00
10261;BME280;5175;42.606;23.388;2023-04-03T05:24:26;93143.44;;;5.16;100.00
10261;BME280;5175;42.606;23.388;2023-04-03T05:26:53;93124.38;;;5.14;100.00
10261;BME280;5175;42.606;23.388;2023-04-03T05:29:20;93142.16;;;5.38;100.00
10261;BME280;5175;42.606;23.388;2023-04-03T05:31:48;93152.78;;;5.53;100.00
10261;BME280;5175;42.606;23.388;2023-04-03T05:34:17;93145.88;;;5.57;100.00
10261;BME280;5175;42.606;23.388;2023-04-03T05:36:44;93120.50;;;5.66;100.00
10261;BME280;5175;42.606;23.388;2023-04-03T05:39:10;93138.00;;;5.93;100.00
10261;BME280;5175;42.606;23.388;2023-04-03T05:41:37;93142.22;;;5.99;100.00
10261;BME280;5175;42.606;23.388;2023-04-03T05:44:04;93143.28;;;6.13;100.00
10261;BME280;5175;42.606;23.388;2023-04-03T05:46:31;93130.81;;;6.28;100.00
10261;BME280;5175;42.606;23.388;2023-04-03T05:48:58;93139.84;;;6.07;100.00
10261;BME280;5175;42.606;23.388;2023-04-03T05:51:33;93130.06;;;5.88;100.00
10261;BME280;5175;42.606;23.388;2023-04-03T05:54:04;93127.16;;;5.89;100.00
10261;BME280;5175;42.606;23.388;2023-04-03T05:56:35;93126.91;;;6.01;100.00
10261;BME280;5175;42.606;23.388;2023-04-03T05:59:02;93122.91;;;6.18;100.00
10261;BME280;5175;42.606;23.388;2023-04-03T06:01:29;93117.53;;;6.44;100.00
10261;BME280;5175;42.606;23.388;2023-04-03T06:03:56;93113.81;;;6.40;100.00
10261;BME280;5175;42.606;23.388;2023-04-03T06:06:24;93123.34;;;6.51;100.00
10261;BME280;5175;42.606;23.388;2023-04-03T06:08:52;93130.69;;;6.74;100.00
10261;BME280;5175;42.606;23.388;2023-04-03T06:11:20;93128.59;;;6.71;100.00
10261;BME280;5175;42.606;23.388;2023-04-03T06:13:48;93117.19;;;6.70;100.00
10261;BME280;5175;42.606;23.388;2023-04-03T06:16:15;93119.22;;;6.93;100.00
10261;BME280;5175;42.606;23.388;2023-04-03T06:18:43;93123.69;;;7.03;100.00
10261;BME280;5175;42.606;23.388;2023-04-03T06:21:10;93127.84;;;7.19;100.00
10261;BME280;5175;42.606;23.388;2023-04-03T06:23:37;93123.59;;;7.23;100.00
10261;BME280;5175;42.606;23.388;2023-04-03T06:26:05;93120.47;;;7.06;100.00
10261;BME280;5175;42.606;23.388;2023-04-03T06:28:32;93123.38;;;7.15;100.00
10261;BME280;5175;42.606;23.388;2023-04-03T06:30:59;93127.63;;;7.11;100.00
10261;BME280;5175;42.606;23.388;2023-04-03T06:33:25;93139.41;;;7.43;100.00
10261;BME280;5175;42.606;23.388;2023-04-03T06:35:56;93142.38;;;7.37;100.00
10261;BME280;5175;42.606;23.388;2023-04-03T06:38:24;93143.59;;;7.54;100.00
10261;BME280;5175;42.606;23.388;2023-04-03T06:40:51;93152.97;;;7.76;100.00
10261;BME280;5175;42.606;23.388;2023-04-03T06:43:20;93138.00;;;7.95;100.00
10261;BME280;5175;42.606;23.388;2023-04-03T06:45:47;93151.00;;;8.30;100.00
10261;BME280;5175;42.606;23.388;2023-04-03T06:48:14;93157.22;;;8.49;100.00
10261;BME280;5175;42.606;23.388;2023-04-03T06:50:41;93147.03;;;8.56;100.00
10261;BME280;5175;42.606;23.388;2023-04-03T06:53:08;93147.97;;;8.70;100.00
10261;BME280;5175;42.606;23.388;2023-04-03T06:55:35;93139.50;;;8.63;100.00
10261;BME280;5175;42.606;23.388;2023-04-03T06:58:03;93157.56;;;8.66;100.00
10261;BME280;5175;42.606;23.388;2023-04-03T07:00:31;93165.50;;;8.71;100.00
10261;BME280;5175;42.606;23.388;2023-04-03T07:02:58;93141.94;;;8.83;100.00
10261;BME280;5175;42.606;23.388;2023-04-03T07:05:26;93124.97;;;8.79;100.00
10261;BME280;5175;42.606;23.388;2023-04-03T07:07:53;93149.88;;;9.12;100.00
10261;BME280;5175;42.606;23.388;2023-04-03T07:10:20;93152.94;;;9.24;100.00
10261;BME280;5175;42.606;23.388;2023-04-03T07:12:47;93135.91;;;9.44;100.00
10261;BME280;5175;42.606;23.388;2023-04-03T07:15:13;93131.88;;;9.65;100.00
10261;BME280;5175;42.606;23.388;2023-04-03T07:17:42;93139.19;;;9.92;99.90
10261;BME280;5175;42.606;23.388;2023-04-03T07:20:09;93125.13;;;9.73;100.00
10261;BME280;5175;42.606;23.388;2023-04-03T07:22:37;93131.34;;;10.00;100.00
10261;BME280;5175;42.606;23.388;2023-04-03T07:25:04;93133.88;;;9.73;100.00
10261;BME280;5175;42.606;23.388;2023-04-03T07:27:33;93129.19;;;9.84;100.00
10261;BME280;5175;42.606;23.388;2023-04-03T07:29:59;93108.34;;;9.72;100.00
10261;BME280;5175;42.606;23.388;2023-04-03T07:32:26;93129.53;;;10.15;99.08
10261;BME280;5175;42.606;23.388;2023-04-03T07:34:54;93120.41;;;10.21;98.11
10261;BME280;5175;42.606;23.388;2023-04-03T07:37:21;93123.47;;;10.28;97.98
10261;BME280;5175;42.606;23.388;2023-04-03T07:39:48;93125.59;;;10.58;96.13
10261;BME280;5175;42.606;23.388;2023-04-03T07:42:15;93061.88;;;10.43;89.85
10261;BME280;5175;42.606;23.388;2023-04-03T07:44:42;93116.31;;;10.55;89.64
10261;BME280;5175;42.606;23.388;2023-04-03T07:47:08;93121.59;;;10.60;88.75
10261;BME280;5175;42.606;23.388;2023-04-03T07:49:35;93124.66;;;10.81;88.14
10261;BME280;5175;42.606;23.388;2023-04-03T07:52:06;93121.00;;;10.77;88.35
10261;BME280;5175;42.606;23.388;2023-04-03T07:54:34;93113.38;;;10.84;87.42
10261;BME280;5175;42.606;23.388;2023-04-03T07:57:01;93123.38;;;10.92;84.82
10261;BME280;5175;42.606;23.388;2023-04-03T07:59:28;93123.25;;;10.84;84.50
10261;BME280;5175;42.606;23.388;2023-04-03T08:01:55;93125.25;;;10.92;86.01
10261;BME280;5175;42.606;23.388;2023-04-03T08:04:22;93122.28;;;10.80;87.33
10261;BME280;5175;42.606;23.388;2023-04-03T08:06:49;93114.41;;;10.88;86.63
10261;BME280;5175;42.606;23.388;2023-04-03T08:09:18;93128.63;;;10.97;84.70
10261;BME280;5175;42.606;23.388;2023-04-03T08:11:45;93130.00;;;10.95;85.54
10261;BME280;5175;42.606;23.388;2023-04-03T08:14:12;93106.09;;;10.90;86.94
10261;BME280;5175;42.606;23.388;2023-04-03T08:16:44;93118.63;;;11.03;89.19
10261;BME280;5175;42.606;23.388;2023-04-03T08:19:11;93115.19;;;11.02;87.91
10261;BME280;5175;42.606;23.388;2023-04-03T08:21:39;93118.53;;;11.08;89.85
10261;BME280;5175;42.606;23.388;2023-04-03T08:24:07;93104.28;;;11.12;89.98
10261;BME280;5175;42.606;23.388;2023-04-03T08:26:36;93107.19;;;10.89;89.99
10261;BME280;5175;42.606;23.388;2023-04-03T08:29:03;93107.16;;;11.16;89.43
10261;BME280;5175;42.606;23.388;2023-04-03T08:31:30;93104.97;;;11.04;90.38
10261;BME280;5175;42.606;23.388;2023-04-03T08:33:57;93095.63;;;10.93;90.81
10261;BME280;5175;42.606;23.388;2023-04-03T08:36:26;93085.81;;;11.02;92.26
10261;BME280;5175;42.606;23.388;2023-04-03T08:38:54;93096.47;;;11.29;90.86
10261;BME280;5175;42.606;23.388;2023-04-03T08:41:29;93101.28;;;11.41;90.06
10261;BME280;5175;42.606;23.388;2023-04-03T08:44:03;93036.38;;;11.05;88.86
10261;BME280;5175;42.606;23.388;2023-04-03T08:46:46;93096.63;;;11.47;88.11
10261;BME280;5175;42.606;23.388;2023-04-03T08:49:21;93082.59;;;11.41;89.01
10261;BME280;5175;42.606;23.388;2023-04-03T08:51:53;93087.38;;;11.80;88.14
10261;BME280;5175;42.606;23.388;2023-04-03T08:54:30;93098.97;;;11.75;85.86
10261;BME280;5175;42.606;23.388;2023-04-03T08:57:02;93083.78;;;11.84;86.78
10261;BME280;5175;42.606;23.388;2023-04-03T08:59:34;93076.63;;;11.93;88.15
10261;BME280;5175;42.606;23.388;2023-04-03T09:02:12;93060.41;;;11.90;88.10
10261;BME280;5175;42.606;23.388;2023-04-03T09:04:42;93061.69;;;11.92;88.90
10261;BME280;5175;42.606;23.388;2023-04-03T09:07:15;93069.34;;;12.08;86.31
10261;BME280;5175;42.606;23.388;2023-04-03T09:09:45;93070.06;;;12.22;86.94
10261;BME280;5175;42.606;23.388;2023-04-03T09:12:18;93062.81;;;12.22;84.30
10261;BME280;5175;42.606;23.388;2023-04-03T09:14:57;93068.16;;;12.22;84.54
10261;BME280;5175;42.606;23.388;2023-04-03T09:17:35;93056.19;;;12.42;83.21
10261;BME280;5175;42.606;23.388;2023-04-03T09:20:12;93060.13;;;12.44;81.56
10261;BME280;5175;42.606;23.388;2023-04-03T09:22:43;93006.50;;;12.19;78.69
10261;BME280;5175;42.606;23.388;2023-04-03T09:25:14;93056.91;;;12.65;77.16
10261;BME280;5175;42.606;23.388;2023-04-03T09:27:42;93068.69;;;12.64;72.91
10261;BME280;5175;42.606;23.388;2023-04-03T09:30:14;93069.50;;;12.64;70.68
10261;BME280;5175;42.606;23.388;2023-04-03T09:32:43;93070.97;;;12.48;71.84
10261;BME280;5175;42.606;23.388;2023-04-03T09:35:19;93071.94;;;12.83;70.60
10261;BME280;5175;42.606;23.388;2023-04-03T09:37:49;93063.72;;;12.79;70.13
10261;BME280;5175;42.606;23.388;2023-04-03T09:40:44;93066.50;;;12.96;70.58
10261;BME280;5175;42.606;23.388;2023-04-03T09:43:24;93069.66;;;12.98;68.99
10261;BME280;5175;42.606;23.388;2023-04-03T09:45:53;93056.81;;;12.78;70.42
10261;BME280;5175;42.606;23.388;2023-04-03T09:48:21;93069.72;;;12.45;67.88
10261;BME280;5175;42.606;23.388;2023-04-03T09:50:55;93052.31;;;12.26;69.53
10261;BME280;5175;42.606;23.388;2023-04-03T09:53:35;93047.16;;;12.29;69.57
10261;BME280;5175;42.606;23.388;2023-04-03T09:56:04;93044.06;;;12.44;69.09
10261;BME280;5175;42.606;23.388;2023-04-03T09:58:48;93031.88;;;12.61;65.73
10261;BME280;5175;42.606;23.388;2023-04-03T10:01:25;93052.38;;;12.74;68.05
10261;BME280;5175;42.606;23.388;2023-04-03T10:04:08;93042.72;;;12.55;69.24
10261;BME280;5175;42.606;23.388;2023-04-03T10:06:37;93039.91;;;12.69;67.70
10261;BME280;5175;42.606;23.388;2023-04-03T10:09:17;93054.16;;;12.78;68.21
10261;BME280;5175;42.606;23.388;2023-04-03T10:11:58;93035.06;;;12.40;69.08
10261;BME280;5175;42.606;23.388;2023-04-03T10:14:29;93047.53;;;12.76;68.72
10261;BME280;5175;42.606;23.388;2023-04-03T10:17:05;93038.19;;;12.65;69.03
10261;BME280;5175;42.606;23.388;2023-04-03T10:19:40;93035.03;;;12.71;68.60
10261;BME280;5175;42.606;23.388;2023-04-03T10:22:15;93044.84;;;12.84;68.25
10261;BME280;5175;42.606;23.388;2023-04-03T10:24:52;93032.88;;;12.82;68.22
10261;BME280;5175;42.606;23.388;2023-04-03T10:27:30;93016.44;;;12.66;67.83
10261;BME280;5175;42.606;23.388;2023-04-03T10:30:08;92987.91;;;12.44;68.92
10261;BME280;5175;42.606;23.388;2023-04-03T10:32:54;93033.97;;;12.72;69.49
10261;BME280;5175;42.606;23.388;2023-04-03T10:35:35;93025.00;;;12.77;69.36
10261;BME280;5175;42.606;23.388;2023-04-03T10:38:11;93020.72;;;12.67;69.92
10261;BME280;5175;42.606;23.388;2023-04-03T10:40:49;93014.44;;;12.72;70.21
10261;BME280;5175;42.606;23.388;2023-04-03T10:43:23;93001.94;;;12.58;71.56
10261;BME280;5175;42.606;23.388;2023-04-03T10:45:58;92995.81;;;12.58;70.56
10261;BME280;5175;42.606;23.388;2023-04-03T10:48:44;93007.16;;;12.64;70.49
10261;BME280;5175;42.606;23.388;2023-04-03T10:51:22;93012.88;;;12.71;71.14
10261;BME280;5175;42.606;23.388;2023-04-03T10:53:55;93009.53;;;12.65;71.17
10261;BME280;5175;42.606;23.388;2023-04-03T10:56:30;93007.94;;;12.64;71.77
10261;BME280;5175;42.606;23.388;2023-04-03T10:59:02;93003.19;;;12.52;73.79
10261;BME280;5175;42.606;23.388;2023-04-03T11:01:36;92999.41;;;12.53;73.53
10261;BME280;5175;42.606;23.388;2023-04-03T11:04:06;93006.38;;;12.24;75.70
10261;BME280;5175;42.606;23.388;2023-04-03T11:06:36;93009.25;;;12.36;77.42
10261;BME280;5175;42.606;23.388;2023-04-03T11:09:10;92987.84;;;12.05;84.33
10261;BME280;5175;42.606;23.388;2023-04-03T11:11:42;92992.13;;;11.84;85.08
10261;BME280;5175;42.606;23.388;2023-04-03T11:14:11;93003.81;;;11.88;87.48
10261;BME280;5175;42.606;23.388;2023-04-03T11:16:45;93000.31;;;11.65;91.88
10261;BME280;5175;42.606;23.388;2023-04-03T11:19:17;92989.91;;;11.42;97.14
10261;BME280;5175;42.606;23.388;2023-04-03T11:21:51;92997.63;;;11.43;97.31
10261;BME280;5175;42.606;23.388;2023-04-03T11:24:23;92998.38;;;11.21;98.94
10261;BME280;5175;42.606;23.388;2023-04-03T11:26:51;92983.59;;;11.02;100.00
10261;BME280;5175;42.606;23.388;2023-04-03T11:29:23;92973.56;;;11.21;100.00
10261;BME280;5175;42.606;23.388;2023-04-03T11:32:13;92983.81;;;11.27;100.00
10261;BME280;5175;42.606;23.388;2023-04-03T11:34:48;92967.53;;;10.93;100.00
10261;BME280;5175;42.606;23.388;2023-04-03T11:37:31;92989.47;;;10.77;100.00
10261;BME280;5175;42.606;23.388;2023-04-03T11:40:04;92980.09;;;11.15;100.00
10261;BME280;5175;42.606;23.388;2023-04-03T11:42:35;92995.03;;;11.16;100.00
10261;BME280;5175;42.606;23.388;2023-04-03T11:45:17;92984.47;;;11.11;100.00
10261;BME280;5175;42.606;23.388;2023-04-03T11:47:52;92986.16;;;11.07;100.00
10261;BME280;5175;42.606;23.388;2023-04-03T11:50:43;92990.72;;;11.06;100.00
10261;BME280;5175;42.606;23.388;2023-04-03T11:53:32;92988.22;;;11.10;100.00
10261;BME280;5175;42.606;23.388;2023-04-03T11:59:22;92991.44;;;10.98;100.00
10261;BME280;5175;42.606;23.388;2023-04-03T12:01:50;92990.06;;;10.87;100.00
10261;BME280;5175;42.606;23.388;2023-04-03T12:04:18;92986.31;;;10.75;100.00
10261;BME280;5175;42.606;23.388;2023-04-03T12:06:53;92994.63;;;10.59;100.00
10261;BME280;5175;42.606;23.388;2023-04-03T12:09:32;92971.59;;;10.63;100.00
10261;BME280;5175;42.606;23.388;2023-04-03T12:12:27;92988.41;;;10.78;100.00
10261;BME280;5175;42.606;23.388;2023-04-03T12:14:48;92993.25;;;10.76;100.00
10261;BME280;5175;42.606;23.388;2023-04-03T12:17:22;92982.41;;;10.45;100.00
10261;BME280;5175;42.606;23.388;2023-04-03T12:19:51;92974.88;;;10.47;100.00
10261;BME280;5175;42.606;23.388;2023-04-03T12:22:20;92978.13;;;10.17;100.00
10261;BME280;5175;42.606;23.388;2023-04-03T12:24:49;92969.19;;;9.94;100.00
10261;BME280;5175;42.606;23.388;2023-04-03T12:27:37;92974.94;;;9.69;100.00
10261;BME280;5175;42.606;23.388;2023-04-03T12:30:26;92960.84;;;9.36;100.00
10261;BME280;5175;42.606;23.388;2023-04-03T12:33:04;92954.31;;;9.28;100.00
10261;BME280;5175;42.606;23.388;2023-04-03T12:35:56;92940.16;;;9.14;100.00
10261;BME280;5175;42.606;23.388;2023-04-03T12:38:49;92947.13;;;9.29;100.00
10261;BME280;5175;42.606;23.388;2023-04-03T12:41:30;92945.50;;;9.47;100.00
10261;BME280;5175;42.606;23.388;2023-04-03T12:44:23;92935.97;;;9.59;100.00
10261;BME280;5175;42.606;23.388;2023-04-03T12:46:53;92927.72;;;9.74;100.00
10261;BME280;5175;42.606;23.388;2023-04-03T12:49:33;92928.78;;;9.60;100.00
10261;BME280;5175;42.606;23.388;2023-04-03T12:52:04;92931.88;;;9.80;100.00
10261;BME280;5175;42.606;23.388;2023-04-03T12:54:36;92926.94;;;9.87;100.00
10261;BME280;5175;42.606;23.388;2023-04-03T12:57:12;92923.31;;;9.83;100.00
10261;BME280;5175;42.606;23.388;2023-04-03T12:59:39;92926.72;;;9.84;100.00
10261;BME280;5175;42.606;23.388;2023-04-03T13:02:25;92929.81;;;9.91;100.00
10261;BME280;5175;42.606;23.388;2023-04-03T13:04:55;92928.63;;;9.97;100.00
10261;BME280;5175;42.606;23.388;2023-04-03T13:07:26;92933.38;;;10.00;100.00
10261;BME280;5175;42.606;23.388;2023-04-03T13:09:59;92931.59;;;9.95;100.00
10261;BME280;5175;42.606;23.388;2023-04-03T13:12:26;92934.34;;;9.90;100.00
10261;BME280;5175;42.606;23.388;2023-04-03T13:14:56;92927.72;;;10.01;100.00
10261;BME280;5175;42.606;23.388;2023-04-03T13:17:24;92928.44;;;9.93;100.00
10261;BME280;5175;42.606;23.388;2023-04-03T13:19:51;92929.31;;;10.02;100.00